sensor_id;sensor_type;location;lat;lon;timestamp;P1;durP1;ratioP1;P2;durP2;ratioP2
55210;SDS011;41082;52.822;6.666;2023-11-18T00:00:16;21.95;;;13.80;;
55210;SDS011;41082;52.822;6.666;2023-11-18T00:02:42;18.98;;;13.02;;
55210;SDS011;41082;52.822;6.666;2023-11-18T00:05:09;20.48;;;12.85;;
55210;SDS011;41082;52.822;6.666;2023-11-18T00:07:35;21.23;;;13.45;;
55210;SDS011;41082;52.822;6.666;2023-11-18T00:10:01;19.17;;;13.30;;
55210;SDS011;41082;52.822;6.666;2023-11-18T00:12:28;18.30;;;12.63;;
55210;SDS011;41082;52.822;6.666;2023-11-18T00:14:54;17.98;;;12.43;;
55210;SDS011;41082;52.822;6.666;2023-11-18T00:17:19;23.15;;;14.15;;
55210;SDS011;41082;52.822;6.666;2023-11-18T00:19:45;19.40;;;13.10;;
55210;SDS011;41082;52.822;6.666;2023-11-18T00:22:12;19.83;;;13.48;;
55210;SDS011;41082;52.822;6.666;2023-11-18T00:24:38;20.55;;;13.00;;
55210;SDS011;41082;52.822;6.666;2023-11-18T00:27:04;19.10;;;13.18;;
55210;SDS011;41082;52.822;6.666;2023-11-18T00:29:34;15.20;;;10.73;;
55210;SDS011;41082;52.822;6.666;2023-11-18T00:32:03;16.58;;;9.95;;
55210;SDS011;41082;52.822;6.666;2023-11-18T00:34:29;13.18;;;9.55;;
55210;SDS011;41082;52.822;6.666;2023-11-18T00:36:55;15.45;;;11.38;;
55210;SDS011;41082;52.822;6.666;2023-11-18T00:39:22;14.52;;;11.18;;
55210;SDS011;41082;52.822;6.666;2023-11-18T00:41:49;18.98;;;12.90;;
55210;SDS011;41082;52.822;6.666;2023-11-18T00:44:14;24.25;;;14.45;;
55210;SDS011;41082;52.822;6.666;2023-11-18T00:46:40;22.30;;;13.88;;
55210;SDS011;41082;52.822;6.666;2023-11-18T00:49:06;20.50;;;13.82;;
55210;SDS011;41082;52.822;6.666;2023-11-18T00:51:32;22.83;;;15.20;;
55210;SDS011;41082;52.822;6.666;2023-11-18T00:53:58;20.52;;;14.82;;
55210;SDS011;41082;52.822;6.666;2023-11-18T00:56:27;21.50;;;13.43;;
55210;SDS011;41082;52.822;6.666;2023-11-18T00:58:53;25.40;;;14.75;;
55210;SDS011;41082;52.822;6.666;2023-11-18T01:01:19;22.08;;;14.90;;
55210;SDS011;41082;52.822;6.666;2023-11-18T01:03:46;20.30;;;14.07;;
55210;SDS011;41082;52.822;6.666;2023-11-18T01:06:12;61.55;;;16.02;;
55210;SDS011;41082;52.822;6.666;2023-11-18T01:08:38;21.77;;;15.38;;
55210;SDS011;41082;52.822;6.666;2023-11-18T01:11:05;23.92;;;14.95;;
55210;SDS011;41082;52.822;6.666;2023-11-18T01:13:30;25.08;;;14.77;;
55210;SDS011;41082;52.822;6.666;2023-11-18T01:15:56;25.25;;;15.50;;
55210;SDS011;41082;52.822;6.666;2023-11-18T01:18:22;24.42;;;16.30;;
55210;SDS011;41082;52.822;6.666;2023-11-18T01:20:48;24.05;;;14.98;;
55210;SDS011;41082;52.822;6.666;2023-11-18T01:23:14;34.65;;;16.30;;
55210;SDS011;41082;52.822;6.666;2023-11-18T01:25:39;27.92;;;15.88;;
55210;SDS011;41082;52.822;6.666;2023-11-18T01:28:06;26.70;;;16.42;;
55210;SDS011;41082;52.822;6.666;2023-11-18T01:30:31;24.05;;;15.38;;
55210;SDS011;41082;52.822;6.666;2023-11-18T01:32:57;22.98;;;15.85;;
55210;SDS011;41082;52.822;6.666;2023-11-18T01:35:26;26.05;;;15.25;;
55210;SDS011;41082;52.822;6.666;2023-11-18T01:37:52;29.55;;;15.98;;
55210;SDS011;41082;52.822;6.666;2023-11-18T01:40:19;26.67;;;16.90;;
55210;SDS011;41082;52.822;6.666;2023-11-18T01:42:45;38.90;;;17.85;;
55210;SDS011;41082;52.822;6.666;2023-11-18T01:45:15;29.10;;;16.95;;
55210;SDS011;41082;52.822;6.666;2023-11-18T01:47:44;40.85;;;18.38;;
55210;SDS011;41082;52.822;6.666;2023-11-18T01:50:13;27.13;;;16.85;;
55210;SDS011;41082;52.822;6.666;2023-11-18T01:52:39;32.72;;;16.98;;
55210;SDS011;41082;52.822;6.666;2023-11-18T01:55:06;98.85;;;19.85;;
55210;SDS011;41082;52.822;6.666;2023-11-18T01:57:35;85.90;;;18.33;;
55210;SDS011;41082;52.822;6.666;2023-11-18T02:00:02;36.45;;;18.33;;
55210;SDS011;41082;52.822;6.666;2023-11-18T02:02:31;30.45;;;17.85;;
55210;SDS011;41082;52.822;6.666;2023-11-18T02:04:58;67.10;;;19.85;;
55210;SDS011;41082;52.822;6.666;2023-11-18T02:07:26;31.40;;;17.55;;
55210;SDS011;41082;52.822;6.666;2023-11-18T02:09:55;31.95;;;17.52;;
55210;SDS011;41082;52.822;6.666;2023-11-18T02:12:29;30.95;;;17.75;;
55210;SDS011;41082;52.822;6.666;2023-11-18T02:15:31;27.20;;;16.90;;
55210;SDS011;41082;52.822;6.666;2023-11-18T02:17:59;33.13;;;19.38;;
55210;SDS011;41082;52.822;6.666;2023-11-18T02:20:28;39.97;;;20.88;;
55210;SDS011;41082;52.822;6.666;2023-11-18T02:22:55;39.25;;;20.65;;
55210;SDS011;41082;52.822;6.666;2023-11-18T02:25:20;68.05;;;21.23;;
55210;SDS011;41082;52.822;6.666;2023-11-18T02:27:49;38.10;;;20.50;;
55210;SDS011;41082;52.822;6.666;2023-11-18T02:30:14;37.75;;;19.52;;
55210;SDS011;41082;52.822;6.666;2023-11-18T02:32:44;39.75;;;20.05;;
55210;SDS011;41082;52.822;6.666;2023-11-18T02:35:48;36.77;;;19.87;;
55210;SDS011;41082;52.822;6.666;2023-11-18T02:38:18;33.53;;;19.77;;
55210;SDS011;41082;52.822;6.666;2023-11-18T02:40:52;36.70;;;20.05;;
55210;SDS011;41082;52.822;6.666;2023-11-18T02:43:21;41.10;;;20.75;;
55210;SDS011;41082;52.822;6.666;2023-11-18T02:45:49;35.08;;;21.65;;
55210;SDS011;41082;52.822;6.666;2023-11-18T02:48:16;45.47;;;20.48;;
55210;SDS011;41082;52.822;6.666;2023-11-18T02:50:43;30.05;;;18.73;;
55210;SDS011;41082;52.822;6.666;2023-11-18T02:53:09;47.40;;;19.98;;
55210;SDS011;41082;52.822;6.666;2023-11-18T02:55:34;44.63;;;19.45;;
55210;SDS011;41082;52.822;6.666;2023-11-18T02:58:00;27.40;;;17.65;;
55210;SDS011;41082;52.822;6.666;2023-11-18T03:00:27;85.35;;;20.67;;
55210;SDS011;41082;52.822;6.666;2023-11-18T03:02:53;42.53;;;20.48;;
55210;SDS011;41082;52.822;6.666;2023-11-18T03:05:19;78.13;;;20.70;;
55210;SDS011;41082;52.822;6.666;2023-11-18T03:07:48;34.10;;;19.67;;
55210;SDS011;41082;52.822;6.666;2023-11-18T03:10:20;39.25;;;19.65;;
55210;SDS011;41082;52.822;6.666;2023-11-18T03:12:49;39.15;;;20.75;;
55210;SDS011;41082;52.822;6.666;2023-11-18T03:15:17;49.45;;;19.25;;
55210;SDS011;41082;52.822;6.666;2023-11-18T03:17:44;90.07;;;22.15;;
55210;SDS011;41082;52.822;6.666;2023-11-18T03:20:16;31.63;;;19.25;;
55210;SDS011;41082;52.822;6.666;2023-11-18T03:22:43;51.20;;;21.38;;
55210;SDS011;41082;52.822;6.666;2023-11-18T03:25:10;83.25;;;20.30;;
55210;SDS011;41082;52.822;6.666;2023-11-18T03:27:36;35.17;;;20.27;;
55210;SDS011;41082;52.822;6.666;2023-11-18T03:30:02;33.67;;;19.90;;
55210;SDS011;41082;52.822;6.666;2023-11-18T03:32:28;37.75;;;20.52;;
55210;SDS011;41082;52.822;6.666;2023-11-18T03:34:53;33.03;;;19.25;;
55210;SDS011;41082;52.822;6.666;2023-11-18T03:37:19;46.92;;;21.63;;
55210;SDS011;41082;52.822;6.666;2023-11-18T03:39:48;29.95;;;18.55;;
55210;SDS011;41082;52.822;6.666;2023-11-18T03:42:13;37.40;;;20.00;;
55210;SDS011;41082;52.822;6.666;2023-11-18T03:44:40;57.22;;;21.17;;
55210;SDS011;41082;52.822;6.666;2023-11-18T03:47:06;109.97;;;23.38;;
55210;SDS011;41082;52.822;6.666;2023-11-18T03:49:32;95.47;;;23.20;;
55210;SDS011;41082;52.822;6.666;2023-11-18T03:51:57;40.88;;;20.58;;
55210;SDS011;41082;52.822;6.666;2023-11-18T03:54:23;63.38;;;22.08;;
55210;SDS011;41082;52.822;6.666;2023-11-18T03:56:49;46.45;;;22.75;;
55210;SDS011;41082;52.822;6.666;2023-11-18T03:59:15;65.93;;;22.13;;
55210;SDS011;41082;52.822;6.666;2023-11-18T04:01:40;134.40;;;23.30;;
55210;SDS011;41082;52.822;6.666;2023-11-18T04:04:06;80.32;;;24.13;;
55210;SDS011;41082;52.822;6.666;2023-11-18T04:06:32;75.75;;;23.05;;
55210;SDS011;41082;52.822;6.666;2023-11-18T04:08:57;36.85;;;21.13;;
55210;SDS011;41082;52.822;6.666;2023-11-18T04:11:23;36.45;;;20.88;;
55210;SDS011;41082;52.822;6.666;2023-11-18T04:13:49;38.47;;;21.60;;
55210;SDS011;41082;52.822;6.666;2023-11-18T04:16:15;53.50;;;22.85;;
55210;SDS011;41082;52.822;6.666;2023-11-18T04:18:41;38.47;;;22.35;;
55210;SDS011;41082;52.822;6.666;2023-11-18T04:21:08;39.00;;;22.77;;
55210;SDS011;41082;52.822;6.666;2023-11-18T04:23:37;37.85;;;22.38;;
55210;SDS011;41082;52.822;6.666;2023-11-18T04:26:04;39.88;;;22.40;;
55210;SDS011;41082;52.822;6.666;2023-11-18T04:28:30;49.08;;;23.92;;
55210;SDS011;41082;52.822;6.666;2023-11-18T04:30:56;61.05;;;25.02;;
55210;SDS011;41082;52.822;6.666;2023-11-18T04:33:21;41.20;;;22.23;;
55210;SDS011;41082;52.822;6.666;2023-11-18T04:35:49;41.30;;;23.70;;
55210;SDS011;41082;52.822;6.666;2023-11-18T04:38:16;50.20;;;25.13;;
55210;SDS011;41082;52.822;6.666;2023-11-18T04:40:42;42.58;;;24.77;;
55210;SDS011;41082;52.822;6.666;2023-11-18T04:43:10;48.17;;;25.48;;
55210;SDS011;41082;52.822;6.666;2023-11-18T04:45:36;42.08;;;24.00;;
55210;SDS011;41082;52.822;6.666;2023-11-18T04:48:02;54.92;;;25.10;;
55210;SDS011;41082;52.822;6.666;2023-11-18T04:50:29;51.35;;;27.13;;
55210;SDS011;41082;52.822;6.666;2023-11-18T04:52:55;50.78;;;27.08;;
55210;SDS011;41082;52.822;6.666;2023-11-18T04:55:21;48.33;;;26.85;;
55210;SDS011;41082;52.822;6.666;2023-11-18T04:57:47;52.10;;;27.55;;
55210;SDS011;41082;52.822;6.666;2023-11-18T05:00:12;49.60;;;26.92;;
55210;SDS011;41082;52.822;6.666;2023-11-18T05:02:42;63.53;;;28.42;;
55210;SDS011;41082;52.822;6.666;2023-11-18T05:05:08;52.65;;;26.83;;
55210;SDS011;41082;52.822;6.666;2023-11-18T05:07:34;57.20;;;27.60;;
55210;SDS011;41082;52.822;6.666;2023-11-18T05:10:03;55.08;;;28.25;;
55210;SDS011;41082;52.822;6.666;2023-11-18T05:12:29;54.83;;;27.63;;
55210;SDS011;41082;52.822;6.666;2023-11-18T05:14:55;56.92;;;29.63;;
55210;SDS011;41082;52.822;6.666;2023-11-18T05:17:22;57.40;;;27.73;;
55210;SDS011;41082;52.822;6.666;2023-11-18T05:19:48;66.68;;;28.13;;
55210;SDS011;41082;52.822;6.666;2023-11-18T05:22:13;60.88;;;28.52;;
55210;SDS011;41082;52.822;6.666;2023-11-18T05:24:39;58.70;;;27.63;;
55210;SDS011;41082;52.822;6.666;2023-11-18T05:27:05;52.10;;;26.65;;
55210;SDS011;41082;52.822;6.666;2023-11-18T05:29:31;58.22;;;27.50;;
55210;SDS011;41082;52.822;6.666;2023-11-18T05:31:57;57.42;;;27.27;;
55210;SDS011;41082;52.822;6.666;2023-11-18T05:34:23;61.40;;;27.85;;
55210;SDS011;41082;52.822;6.666;2023-11-18T05:36:48;56.22;;;27.25;;
55210;SDS011;41082;52.822;6.666;2023-11-18T05:39:19;59.03;;;28.20;;
55210;SDS011;41082;52.822;6.666;2023-11-18T05:41:45;54.15;;;26.00;;
55210;SDS011;41082;52.822;6.666;2023-11-18T05:44:14;59.03;;;27.65;;
55210;SDS011;41082;52.822;6.666;2023-11-18T05:46:47;64.13;;;28.92;;
55210;SDS011;41082;52.822;6.666;2023-11-18T05:49:16;58.20;;;28.02;;
55210;SDS011;41082;52.822;6.666;2023-11-18T05:51:43;66.97;;;27.75;;
55210;SDS011;41082;52.822;6.666;2023-11-18T05:54:09;59.03;;;27.10;;
55210;SDS011;41082;52.822;6.666;2023-11-18T05:56:35;73.40;;;28.75;;
55210;SDS011;41082;52.822;6.666;2023-11-18T05:59:01;66.50;;;27.80;;
55210;SDS011;41082;52.822;6.666;2023-11-18T06:01:30;90.60;;;28.95;;
55210;SDS011;41082;52.822;6.666;2023-11-18T06:03:56;72.72;;;28.30;;
55210;SDS011;41082;52.822;6.666;2023-11-18T06:06:22;79.82;;;27.80;;
55210;SDS011;41082;52.822;6.666;2023-11-18T06:08:48;61.05;;;28.20;;
55210;SDS011;41082;52.822;6.666;2023-11-18T06:11:14;67.15;;;29.15;;
55210;SDS011;41082;52.822;6.666;2023-11-18T06:18:43;71.72;;;27.23;;
55210;SDS011;41082;52.822;6.666;2023-11-18T06:21:13;58.63;;;26.63;;
55210;SDS011;41082;52.822;6.666;2023-11-18T06:23:43;71.07;;;29.00;;
55210;SDS011;41082;52.822;6.666;2023-11-18T06:26:09;65.85;;;28.70;;
55210;SDS011;41082;52.822;6.666;2023-11-18T06:28:36;68.85;;;29.25;;
55210;SDS011;41082;52.822;6.666;2023-11-18T06:31:05;63.55;;;28.98;;
55210;SDS011;41082;52.822;6.666;2023-11-18T06:33:36;69.85;;;30.60;;
55210;SDS011;41082;52.822;6.666;2023-11-18T06:36:08;67.90;;;29.50;;
55210;SDS011;41082;52.822;6.666;2023-11-18T06:38:34;67.25;;;28.65;;
55210;SDS011;41082;52.822;6.666;2023-11-18T06:41:00;68.68;;;30.00;;
55210;SDS011;41082;52.822;6.666;2023-11-18T06:43:28;82.90;;;29.60;;
55210;SDS011;41082;52.822;6.666;2023-11-18T06:46:07;67.93;;;28.50;;
55210;SDS011;41082;52.822;6.666;2023-11-18T06:48:35;64.60;;;28.70;;
55210;SDS011;41082;52.822;6.666;2023-11-18T06:51:01;67.32;;;28.08;;
55210;SDS011;41082;52.822;6.666;2023-11-18T06:53:27;74.18;;;28.92;;
55210;SDS011;41082;52.822;6.666;2023-11-18T06:55:52;61.40;;;28.63;;
55210;SDS011;41082;52.822;6.666;2023-11-18T06:58:18;75.35;;;29.60;;
55210;SDS011;41082;52.822;6.666;2023-11-18T07:00:44;74.95;;;30.45;;
55210;SDS011;41082;52.822;6.666;2023-11-18T07:03:10;65.90;;;28.33;;
55210;SDS011;41082;52.822;6.666;2023-11-18T07:05:37;76.97;;;30.08;;
55210;SDS011;41082;52.822;6.666;2023-11-18T07:08:02;63.92;;;28.85;;
55210;SDS011;41082;52.822;6.666;2023-11-18T07:10:28;65.00;;;29.13;;
55210;SDS011;41082;52.822;6.666;2023-11-18T07:12:54;64.45;;;28.35;;
55210;SDS011;41082;52.822;6.666;2023-11-18T07:15:20;66.90;;;27.23;;
55210;SDS011;41082;52.822;6.666;2023-11-18T07:17:45;61.15;;;27.10;;
55210;SDS011;41082;52.822;6.666;2023-11-18T07:20:11;63.03;;;27.15;;
55210;SDS011;41082;52.822;6.666;2023-11-18T07:22:38;58.42;;;27.50;;
55210;SDS011;41082;52.822;6.666;2023-11-18T07:25:04;62.38;;;26.83;;
55210;SDS011;41082;52.822;6.666;2023-11-18T07:27:33;66.00;;;29.60;;
55210;SDS011;41082;52.822;6.666;2023-11-18T07:30:00;65.55;;;27.88;;
55210;SDS011;41082;52.822;6.666;2023-11-18T07:32:26;65.05;;;28.83;;
55210;SDS011;41082;52.822;6.666;2023-11-18T07:34:51;66.57;;;30.00;;
55210;SDS011;41082;52.822;6.666;2023-11-18T07:37:17;58.65;;;27.40;;
55210;SDS011;41082;52.822;6.666;2023-11-18T07:39:43;79.10;;;29.73;;
55210;SDS011;41082;52.822;6.666;2023-11-18T07:42:10;64.97;;;29.17;;
55210;SDS011;41082;52.822;6.666;2023-11-18T07:44:37;66.55;;;28.48;;
55210;SDS011;41082;52.822;6.666;2023-11-18T07:47:04;72.78;;;30.13;;
55210;SDS011;41082;52.822;6.666;2023-11-18T07:49:31;78.22;;;29.98;;
55210;SDS011;41082;52.822;6.666;2023-11-18T07:51:57;75.65;;;29.65;;
55210;SDS011;41082;52.822;6.666;2023-11-18T07:54:23;74.80;;;29.60;;
55210;SDS011;41082;52.822;6.666;2023-11-18T07:56:49;69.15;;;30.05;;
55210;SDS011;41082;52.822;6.666;2023-11-18T07:59:16;79.65;;;31.08;;
55210;SDS011;41082;52.822;6.666;2023-11-18T08:01:43;76.90;;;31.27;;
55210;SDS011;41082;52.822;6.666;2023-11-18T08:04:11;66.65;;;28.52;;
55210;SDS011;41082;52.822;6.666;2023-11-18T08:06:39;71.25;;;29.20;;
55210;SDS011;41082;52.822;6.666;2023-11-18T08:09:06;76.18;;;31.45;;
55210;SDS011;41082;52.822;6.666;2023-11-18T08:11:39;78.55;;;31.98;;
55210;SDS011;41082;52.822;6.666;2023-11-18T08:14:06;76.28;;;31.90;;
55210;SDS011;41082;52.822;6.666;2023-11-18T08:16:33;75.03;;;31.83;;
55210;SDS011;41082;52.822;6.666;2023-11-18T08:18:59;98.95;;;33.35;;
55210;SDS011;41082;52.822;6.666;2023-11-18T08:21:27;76.03;;;32.72;;
55210;SDS011;41082;52.822;6.666;2023-11-18T08:23:53;89.55;;;34.50;;
55210;SDS011;41082;52.822;6.666;2023-11-18T08:26:19;77.95;;;32.90;;
55210;SDS011;41082;52.822;6.666;2023-11-18T08:28:45;85.10;;;34.05;;
55210;SDS011;41082;52.822;6.666;2023-11-18T08:31:12;73.05;;;33.03;;
55210;SDS011;41082;52.822;6.666;2023-11-18T08:33:40;87.63;;;34.53;;
55210;SDS011;41082;52.822;6.666;2023-11-18T08:36:08;80.28;;;34.75;;
55210;SDS011;41082;52.822;6.666;2023-11-18T08:38:34;80.05;;;34.13;;
55210;SDS011;41082;52.822;6.666;2023-11-18T08:41:00;76.65;;;33.42;;
55210;SDS011;41082;52.822;6.666;2023-11-18T08:43:26;78.70;;;35.50;;
55210;SDS011;41082;52.822;6.666;2023-11-18T08:45:53;73.85;;;33.17;;
55210;SDS011;41082;52.822;6.666;2023-11-18T08:48:21;88.72;;;33.97;;
55210;SDS011;41082;52.822;6.666;2023-11-18T08:50:48;72.95;;;33.63;;
55210;SDS011;41082;52.822;6.666;2023-11-18T08:53:13;76.40;;;33.95;;
55210;SDS011;41082;52.822;6.666;2023-11-18T08:55:42;73.90;;;33.67;;
55210;SDS011;41082;52.822;6.666;2023-11-18T08:58:19;72.47;;;32.88;;
55210;SDS011;41082;52.822;6.666;2023-11-18T09:00:47;69.00;;;31.45;;
55210;SDS011;41082;52.822;6.666;2023-11-18T09:03:16;72.57;;;33.80;;
55210;SDS011;41082;52.822;6.666;2023-11-18T09:05:49;72.57;;;33.85;;
55210;SDS011;41082;52.822;6.666;2023-11-18T09:08:32;70.22;;;33.13;;
55210;SDS011;41082;52.822;6.666;2023-11-18T09:11:04;71.15;;;32.85;;
55210;SDS011;41082;52.822;6.666;2023-11-18T09:13:31;66.03;;;32.83;;
55210;SDS011;41082;52.822;6.666;2023-11-18T09:16:00;66.88;;;32.65;;
55210;SDS011;41082;52.822;6.666;2023-11-18T09:18:34;72.55;;;32.20;;
55210;SDS011;41082;52.822;6.666;2023-11-18T09:21:01;65.65;;;32.47;;
55210;SDS011;41082;52.822;6.666;2023-11-18T09:23:29;67.57;;;31.83;;
55210;SDS011;41082;52.822;6.666;2023-11-18T09:25:57;66.72;;;31.60;;
55210;SDS011;41082;52.822;6.666;2023-11-18T09:28:23;62.13;;;30.92;;
55210;SDS011;41082;52.822;6.666;2023-11-18T09:30:50;64.72;;;32.28;;
55210;SDS011;41082;52.822;6.666;2023-11-18T09:33:21;59.15;;;30.55;;
55210;SDS011;41082;52.822;6.666;2023-11-18T09:35:59;59.37;;;32.03;;
55210;SDS011;41082;52.822;6.666;2023-11-18T09:38:26;54.30;;;29.92;;
55210;SDS011;41082;52.822;6.666;2023-11-18T09:40:56;55.10;;;28.73;;
55210;SDS011;41082;52.822;6.666;2023-11-18T09:43:26;53.70;;;28.65;;
55210;SDS011;41082;52.822;6.666;2023-11-18T09:45:56;52.92;;;29.88;;
55210;SDS011;41082;52.822;6.666;2023-11-18T09:48:28;49.10;;;26.63;;
55210;SDS011;41082;52.822;6.666;2023-11-18T09:50:54;50.05;;;27.63;;
55210;SDS011;41082;52.822;6.666;2023-11-18T09:53:22;44.78;;;25.88;;
55210;SDS011;41082;52.822;6.666;2023-11-18T09:55:56;44.13;;;25.02;;
55210;SDS011;41082;52.822;6.666;2023-11-18T09:58:38;44.42;;;24.80;;
55210;SDS011;41082;52.822;6.666;2023-11-18T10:01:06;40.28;;;24.13;;
55210;SDS011;41082;52.822;6.666;2023-11-18T10:03:39;44.13;;;25.25;;
55210;SDS011;41082;52.822;6.666;2023-11-18T10:06:07;39.10;;;23.73;;
55210;SDS011;41082;52.822;6.666;2023-11-18T10:08:34;38.42;;;21.92;;
55210;SDS011;41082;52.822;6.666;2023-11-18T10:11:03;37.38;;;22.90;;
55210;SDS011;41082;52.822;6.666;2023-11-18T10:13:33;39.65;;;20.85;;
55210;SDS011;41082;52.822;6.666;2023-11-18T10:16:02;37.22;;;21.60;;
55210;SDS011;41082;52.822;6.666;2023-11-18T10:18:30;34.08;;;20.27;;
55210;SDS011;41082;52.822;6.666;2023-11-18T10:21:00;35.10;;;21.08;;
55210;SDS011;41082;52.822;6.666;2023-11-18T10:23:26;36.15;;;20.42;;
55210;SDS011;41082;52.822;6.666;2023-11-18T10:25:56;32.53;;;20.23;;
55210;SDS011;41082;52.822;6.666;2023-11-18T10:28:24;35.10;;;19.13;;
55210;SDS011;41082;52.822;6.666;2023-11-18T10:30:59;33.72;;;18.73;;
55210;SDS011;41082;52.822;6.666;2023-11-18T10:33:30;32.60;;;19.38;;
55210;SDS011;41082;52.822;6.666;2023-11-18T10:36:18;30.05;;;18.05;;
55210;SDS011;41082;52.822;6.666;2023-11-18T10:38:48;28.20;;;17.58;;
55210;SDS011;41082;52.822;6.666;2023-11-18T10:41:14;30.15;;;18.52;;
55210;SDS011;41082;52.822;6.666;2023-11-18T10:43:42;28.70;;;18.63;;
55210;SDS011;41082;52.822;6.666;2023-11-18T10:46:10;29.80;;;18.08;;
55210;SDS011;41082;52.822;6.666;2023-11-18T10:48:47;30.60;;;17.48;;
55210;SDS011;41082;52.822;6.666;2023-11-18T10:51:14;34.25;;;19.17;;
55210;SDS011;41082;52.822;6.666;2023-11-18T10:53:51;32.05;;;19.92;;
55210;SDS011;41082;52.822;6.666;2023-11-18T10:56:26;33.38;;;19.00;;
55210;SDS011;41082;52.822;6.666;2023-11-18T10:58:53;30.40;;;18.80;;
55210;SDS011;41082;52.822;6.666;2023-11-18T11:01:32;33.80;;;19.00;;
55210;SDS011;41082;52.822;6.666;2023-11-18T11:04:16;29.33;;;18.23;;
55210;SDS011;41082;52.822;6.666;2023-11-18T11:06:46;36.45;;;18.70;;
55210;SDS011;41082;52.822;6.666;2023-11-18T11:09:22;35.53;;;19.20;;
55210;SDS011;41082;52.822;6.666;2023-11-18T11:12:06;33.33;;;18.67;;
55210;SDS011;41082;52.822;6.666;2023-11-18T11:14:42;33.00;;;18.60;;
55210;SDS011;41082;52.822;6.666;2023-11-18T11:17:16;28.45;;;17.80;;
55210;SDS011;41082;52.822;6.666;2023-11-18T11:19:57;32.38;;;18.58;;
55210;SDS011;41082;52.822;6.666;2023-11-18T11:25:35;29.15;;;18.23;;
55210;SDS011;41082;52.822;6.666;2023-11-18T11:28:20;30.85;;;17.60;;
55210;SDS011;41082;52.822;6.666;2023-11-18T11:30:50;30.20;;;18.15;;
55210;SDS011;41082;52.822;6.666;2023-11-18T11:33:29;34.22;;;18.30;;
55210;SDS011;41082;52.822;6.666;2023-11-18T11:36:06;28.33;;;17.50;;
55210;SDS011;41082;52.822;6.666;2023-11-18T11:41:03;29.42;;;16.52;;
55210;SDS011;41082;52.822;6.666;2023-11-18T11:43:30;27.02;;;16.88;;
55210;SDS011;41082;52.822;6.666;2023-11-18T11:46:02;27.75;;;17.65;;
55210;SDS011;41082;52.822;6.666;2023-11-18T11:48:36;29.05;;;18.00;;
55210;SDS011;41082;52.822;6.666;2023-11-18T11:53:34;28.30;;;17.00;;
55210;SDS011;41082;52.822;6.666;2023-11-18T11:56:10;24.85;;;17.15;;
55210;SDS011;41082;52.822;6.666;2023-11-18T11:58:40;31.88;;;17.65;;
55210;SDS011;41082;52.822;6.666;2023-11-18T12:01:14;27.58;;;17.30;;
55210;SDS011;41082;52.822;6.666;2023-11-18T12:03:48;29.10;;;17.45;;
55210;SDS011;41082;52.822;6.666;2023-11-18T12:06:20;29.63;;;17.33;;
55210;SDS011;41082;52.822;6.666;2023-11-18T12:08:51;27.98;;;18.13;;
55210;SDS011;41082;52.822;6.666;2023-11-18T12:11:18;25.08;;;16.52;;
55210;SDS011;41082;52.822;6.666;2023-11-18T12:14:04;27.00;;;18.05;;
55210;SDS011;41082;52.822;6.666;2023-11-18T12:16:59;29.00;;;16.58;;
55210;SDS011;41082;52.822;6.666;2023-11-18T12:19:32;27.73;;;16.77;;
55210;SDS011;41082;52.822;6.666;2023-11-18T12:22:10;30.40;;;18.55;;
55210;SDS011;41082;52.822;6.666;2023-11-18T12:24:45;30.50;;;17.70;;
55210;SDS011;41082;52.822;6.666;2023-11-18T12:27:40;30.75;;;17.30;;
55210;SDS011;41082;52.822;6.666;2023-11-18T12:30:37;29.55;;;16.38;;
55210;SDS011;41082;52.822;6.666;2023-11-18T12:33:01;32.20;;;16.83;;
55210;SDS011;41082;52.822;6.666;2023-11-18T12:35:37;27.20;;;17.08;;
55210;SDS011;41082;52.822;6.666;2023-11-18T12:40:52;28.92;;;17.20;;
55210;SDS011;41082;52.822;6.666;2023-11-18T12:48:41;27.95;;;15.93;;
55210;SDS011;41082;52.822;6.666;2023-11-18T12:51:09;29.65;;;15.88;;
55210;SDS011;41082;52.822;6.666;2023-11-18T12:53:46;28.17;;;15.55;;
55210;SDS011;41082;52.822;6.666;2023-11-18T12:56:18;24.95;;;15.05;;
55210;SDS011;41082;52.822;6.666;2023-11-18T12:58:45;25.67;;;15.32;;
55210;SDS011;41082;52.822;6.666;2023-11-18T13:01:12;27.70;;;15.52;;
55210;SDS011;41082;52.822;6.666;2023-11-18T13:03:42;23.58;;;15.02;;
55210;SDS011;41082;52.822;6.666;2023-11-18T13:06:09;24.23;;;15.73;;
55210;SDS011;41082;52.822;6.666;2023-11-18T13:08:37;23.58;;;15.13;;
55210;SDS011;41082;52.822;6.666;2023-11-18T13:11:03;26.35;;;15.48;;
55210;SDS011;41082;52.822;6.666;2023-11-18T13:13:33;25.35;;;15.30;;
55210;SDS011;41082;52.822;6.666;2023-11-18T13:15:59;27.55;;;15.57;;
55210;SDS011;41082;52.822;6.666;2023-11-18T13:18:25;26.33;;;14.45;;
55210;SDS011;41082;52.822;6.666;2023-11-18T13:20:58;27.17;;;15.88;;
55210;SDS011;41082;52.822;6.666;2023-11-18T13:23:24;30.05;;;17.50;;
55210;SDS011;41082;52.822;6.666;2023-11-18T13:25:53;28.23;;;15.57;;
55210;SDS011;41082;52.822;6.666;2023-11-18T13:28:24;23.65;;;14.55;;
55210;SDS011;41082;52.822;6.666;2023-11-18T13:30:50;23.35;;;14.63;;
55210;SDS011;41082;52.822;6.666;2023-11-18T13:33:16;22.63;;;14.43;;
55210;SDS011;41082;52.822;6.666;2023-11-18T13:35:42;25.52;;;14.63;;
55210;SDS011;41082;52.822;6.666;2023-11-18T13:38:09;26.95;;;14.73;;
55210;SDS011;41082;52.822;6.666;2023-11-18T13:40:47;29.45;;;14.10;;
55210;SDS011;41082;52.822;6.666;2023-11-18T13:43:13;22.88;;;14.68;;
55210;SDS011;41082;52.822;6.666;2023-11-18T13:45:40;24.98;;;13.80;;
55210;SDS011;41082;52.822;6.666;2023-11-18T13:48:07;22.52;;;14.23;;
55210;SDS011;41082;52.822;6.666;2023-11-18T13:50:36;26.20;;;14.15;;
55210;SDS011;41082;52.822;6.666;2023-11-18T13:53:03;24.17;;;13.65;;
55210;SDS011;41082;52.822;6.666;2023-11-18T13:55:30;25.23;;;14.20;;
55210;SDS011;41082;52.822;6.666;2023-11-18T13:57:57;19.98;;;13.10;;
55210;SDS011;41082;52.822;6.666;2023-11-18T14:00:27;26.80;;;13.50;;
55210;SDS011;41082;52.822;6.666;2023-11-18T14:02:54;23.77;;;14.02;;
55210;SDS011;41082;52.822;6.666;2023-11-18T14:05:21;20.13;;;13.27;;
55210;SDS011;41082;52.822;6.666;2023-11-18T14:07:50;19.83;;;12.98;;
55210;SDS011;41082;52.822;6.666;2023-11-18T14:10:27;22.55;;;13.15;;
55210;SDS011;41082;52.822;6.666;2023-11-18T14:13:03;25.23;;;14.13;;
55210;SDS011;41082;52.822;6.666;2023-11-18T14:15:31;27.98;;;15.35;;
55210;SDS011;41082;52.822;6.666;2023-11-18T14:18:00;23.35;;;16.00;;
55210;SDS011;41082;52.822;6.666;2023-11-18T14:20:27;22.15;;;14.35;;
55210;SDS011;41082;52.822;6.666;2023-11-18T14:22:52;21.73;;;14.35;;
55210;SDS011;41082;52.822;6.666;2023-11-18T14:25:19;24.85;;;13.98;;
55210;SDS011;41082;52.822;6.666;2023-11-18T14:27:44;23.65;;;14.43;;
55210;SDS011;41082;52.822;6.666;2023-11-18T14:30:11;23.10;;;14.10;;
55210;SDS011;41082;52.822;6.666;2023-11-18T14:32:37;22.25;;;12.88;;
55210;SDS011;41082;52.822;6.666;2023-11-18T14:35:04;20.63;;;12.93;;
55210;SDS011;41082;52.822;6.666;2023-11-18T14:37:34;20.85;;;13.77;;
55210;SDS011;41082;52.822;6.666;2023-11-18T14:40:05;18.30;;;13.75;;
55210;SDS011;41082;52.822;6.666;2023-11-18T14:42:33;23.92;;;14.38;;
55210;SDS011;41082;52.822;6.666;2023-11-18T14:44:59;20.08;;;13.82;;
55210;SDS011;41082;52.822;6.666;2023-11-18T14:47:24;22.73;;;14.57;;
55210;SDS011;41082;52.822;6.666;2023-11-18T14:49:50;19.88;;;13.23;;